sensor_id;sensor_type;location;lat;lon;timestamp;temperature;humidity
18446;DHT22;9352;50.888;4.466;2023-02-08T00:01:34;-0.20;99.90
18446;DHT22;9352;50.888;4.466;2023-02-08T00:04:00;-0.20;99.90
18446;DHT22;9352;50.888;4.466;2023-02-08T00:06:27;-0.20;99.90
18446;DHT22;9352;50.888;4.466;2023-02-08T00:08:54;-0.20;99.90
18446;DHT22;9352;50.888;4.466;2023-02-08T00:11:21;-0.30;99.90
18446;DHT22;9352;50.888;4.466;2023-02-08T00:13:48;-0.30;99.90
18446;DHT22;9352;50.888;4.466;2023-02-08T00:16:15;-0.30;99.90
18446;DHT22;9352;50.888;4.466;2023-02-08T00:18:44;-0.30;99.90
18446;DHT22;9352;50.888;4.466;2023-02-08T00:21:12;-0.40;99.90
18446;DHT22;9352;50.888;4.466;2023-02-08T00:23:39;-0.40;99.90
18446;DHT22;9352;50.888;4.466;2023-02-08T00:26:07;-0.40;99.90
18446;DHT22;9352;50.888;4.466;2023-02-08T00:28:34;-0.40;99.90
18446;DHT22;9352;50.888;4.466;2023-02-08T00:31:01;-0.40;99.90
18446;DHT22;9352;50.888;4.466;2023-02-08T00:33:28;-0.40;99.90
18446;DHT22;9352;50.888;4.466;2023-02-08T00:35:58;-0.40;99.90
18446;DHT22;9352;50.888;4.466;2023-02-08T00:38:26;-0.40;99.90
18446;DHT22;9352;50.888;4.466;2023-02-08T00:40:52;-0.40;99.90
18446;DHT22;9352;50.888;4.466;2023-02-08T00:43:19;-0.40;99.90
18446;DHT22;9352;50.888;4.466;2023-02-08T00:45:46;-0.50;99.90
18446;DHT22;9352;50.888;4.466;2023-02-08T00:48:13;-0.50;99.90
18446;DHT22;9352;50.888;4.466;2023-02-08T00:50:40;-0.50;99.90
18446;DHT22;9352;50.888;4.466;2023-02-08T00:53:08;-0.50;99.90
18446;DHT22;9352;50.888;4.466;2023-02-08T00:55:35;-0.50;99.90
18446;DHT22;9352;50.888;4.466;2023-02-08T00:58:02;-0.50;99.90
18446;DHT22;9352;50.888;4.466;2023-02-08T01:00:29;-0.50;99.90
18446;DHT22;9352;50.888;4.466;2023-02-08T01:02:55;-0.50;99.90
18446;DHT22;9352;50.888;4.466;2023-02-08T01:05:22;-0.50;99.90
18446;DHT22;9352;50.888;4.466;2023-02-08T01:07:49;-0.50;99.90
18446;DHT22;9352;50.888;4.466;2023-02-08T01:10:18;-0.50;99.90
18446;DHT22;9352;50.888;4.466;2023-02-08T01:12:44;-0.50;99.90
18446;DHT22;9352;50.888;4.466;2023-02-08T01:15:11;-0.60;99.90
18446;DHT22;9352;50.888;4.466;2023-02-08T01:17:38;-0.50;99.90
18446;DHT22;9352;50.888;4.466;2023-02-08T01:20:06;-0.60;99.90
18446;DHT22;9352;50.888;4.466;2023-02-08T01:22:33;-0.60;99.90
18446;DHT22;9352;50.888;4.466;2023-02-08T01:25:00;-0.60;99.90
18446;DHT22;9352;50.888;4.466;2023-02-08T01:27:28;-0.60;99.90
18446;DHT22;9352;50.888;4.466;2023-02-08T01:29:55;-0.60;99.90
18446;DHT22;9352;50.888;4.466;2023-02-08T01:32:22;-0.60;99.90
18446;DHT22;9352;50.888;4.466;2023-02-08T01:34:49;-0.60;99.90
18446;DHT22;9352;50.888;4.466;2023-02-08T01:37:16;-0.60;99.90
18446;DHT22;9352;50.888;4.466;2023-02-08T01:39:43;-0.60;99.90
18446;DHT22;9352;50.888;4.466;2023-02-08T01:42:12;-0.70;99.90
18446;DHT22;9352;50.888;4.466;2023-02-08T01:47:49;-0.70;99.90
18446;DHT22;9352;50.888;4.466;2023-02-08T01:50:20;-0.70;99.90
18446;DHT22;9352;50.888;4.466;2023-02-08T01:52:48;-0.70;99.90
18446;DHT22;9352;50.888;4.466;2023-02-08T01:55:19;-0.70;99.90
18446;DHT22;9352;50.888;4.466;2023-02-08T01:57:50;-0.70;99.90
18446;DHT22;9352;50.888;4.466;2023-02-08T02:00:20;-0.70;99.90
18446;DHT22;9352;50.888;4.466;2023-02-08T02:02:51;-0.70;99.90
18446;DHT22;9352;50.888;4.466;2023-02-08T02:05:19;-0.80;99.90
18446;DHT22;9352;50.888;4.466;2023-02-08T02:07:47;-0.80;99.90
18446;DHT22;9352;50.888;4.466;2023-02-08T02:10:17;-0.80;99.90
18446;DHT22;9352;50.888;4.466;2023-02-08T02:12:46;-0.80;99.90
18446;DHT22;9352;50.888;4.466;2023-02-08T02:15:14;-0.80;99.90
18446;DHT22;9352;50.888;4.466;2023-02-08T02:17:41;-0.80;99.90
18446;DHT22;9352;50.888;4.466;2023-02-08T02:20:14;-0.80;99.90
18446;DHT22;9352;50.888;4.466;2023-02-08T02:22:59;-0.80;99.90
18446;DHT22;9352;50.888;4.466;2023-02-08T02:31:58;-0.90;99.90
18446;DHT22;9352;50.888;4.466;2023-02-08T02:34:33;-0.90;99.90
18446;DHT22;9352;50.888;4.466;2023-02-08T02:37:10;-0.90;99.90
18446;DHT22;9352;50.888;4.466;2023-02-08T02:39:42;-1.00;99.90
18446;DHT22;9352;50.888;4.466;2023-02-08T02:42:14;-0.90;99.90
18446;DHT22;9352;50.888;4.466;2023-02-08T02:45:06;-1.00;99.90
18446;DHT22;9352;50.888;4.466;2023-02-08T02:47:42;-1.00;99.90
18446;DHT22;9352;50.888;4.466;2023-02-08T02:50:18;-1.00;99.90
18446;DHT22;9352;50.888;4.466;2023-02-08T02:52:53;-1.00;99.90
18446;DHT22;9352;50.888;4.466;2023-02-08T02:55:24;-1.00;99.90
18446;DHT22;9352;50.888;4.466;2023-02-08T02:57:53;-1.10;99.90
18446;DHT22;9352;50.888;4.466;2023-02-08T03:00:24;-1.10;99.90
18446;DHT22;9352;50.888;4.466;2023-02-08T03:02:53;-1.00;99.90
18446;DHT22;9352;50.888;4.466;2023-02-08T03:05:20;-1.10;99.90
18446;DHT22;9352;50.888;4.466;2023-02-08T03:08:18;-1.00;99.90
18446;DHT22;9352;50.888;4.466;2023-02-08T03:11:02;-1.10;99.90
18446;DHT22;9352;50.888;4.466;2023-02-08T03:13:41;-1.10;99.90
18446;DHT22;9352;50.888;4.466;2023-02-08T03:16:16;-1.10;99.90
18446;DHT22;9352;50.888;4.466;2023-02-08T03:18:58;-1.10;99.90
18446;DHT22;9352;50.888;4.466;2023-02-08T03:21:36;-1.00;99.90
18446;DHT22;9352;50.888;4.466;2023-02-08T03:24:13;-1.00;99.90
18446;DHT22;9352;50.888;4.466;2023-02-08T03:26:48;-1.00;99.90
18446;DHT22;9352;50.888;4.466;2023-02-08T03:29:27;-1.00;99.90
18446;DHT22;9352;50.888;4.466;2023-02-08T03:31:59;-1.00;99.90
18446;DHT22;9352;50.888;4.466;2023-02-08T03:34:33;-1.10;99.90
18446;DHT22;9352;50.888;4.466;2023-02-08T03:37:08;-1.10;99.90
18446;DHT22;9352;50.888;4.466;2023-02-08T03:39:36;-1.10;99.90
18446;DHT22;9352;50.888;4.466;2023-02-08T03:42:07;-1.10;99.90
18446;DHT22;9352;50.888;4.466;2023-02-08T03:44:38;-1.20;99.90
18446;DHT22;9352;50.888;4.466;2023-02-08T03:47:12;-1.20;99.90
18446;DHT22;9352;50.888;4.466;2023-02-08T03:49:42;-1.20;99.90
18446;DHT22;9352;50.888;4.466;2023-02-08T03:52:10;-1.10;99.90
18446;DHT22;9352;50.888;4.466;2023-02-08T03:54:40;-1.20;99.90
18446;DHT22;9352;50.888;4.466;2023-02-08T03:57:12;-1.20;99.90
18446;DHT22;9352;50.888;4.466;2023-02-08T03:59:44;-1.20;99.90
18446;DHT22;9352;50.888;4.466;2023-02-08T04:02:15;-1.20;99.90
18446;DHT22;9352;50.888;4.466;2023-02-08T04:04:46;-1.20;99.90
18446;DHT22;9352;50.888;4.466;2023-02-08T04:07:16;-1.20;99.90
18446;DHT22;9352;50.888;4.466;2023-02-08T04:09:43;-1.30;99.90
18446;DHT22;9352;50.888;4.466;2023-02-08T04:12:10;-1.30;99.90
18446;DHT22;9352;50.888;4.466;2023-02-08T04:14:37;-1.30;99.90
18446;DHT22;9352;50.888;4.466;2023-02-08T04:17:04;-1.30;99.90
18446;DHT22;9352;50.888;4.466;2023-02-08T04:19:31;-1.30;99.90
18446;DHT22;9352;50.888;4.466;2023-02-08T04:21:59;-1.30;99.90
18446;DHT22;9352;50.888;4.466;2023-02-08T04:24:26;-1.30;99.90
18446;DHT22;9352;50.888;4.466;2023-02-08T04:26:53;-1.30;99.90
18446;DHT22;9352;50.888;4.466;2023-02-08T04:29:20;-1.30;99.90
18446;DHT22;9352;50.888;4.466;2023-02-08T04:31:47;-1.30;99.90
18446;DHT22;9352;50.888;4.466;2023-02-08T04:34:15;-1.30;99.90
18446;DHT22;9352;50.888;4.466;2023-02-08T04:36:41;-1.30;99.90
18446;DHT22;9352;50.888;4.466;2023-02-08T04:39:10;-1.30;99.90
18446;DHT22;9352;50.888;4.466;2023-02-08T04:41:36;-1.30;99.90
18446;DHT22;9352;50.888;4.466;2023-02-08T04:44:03;-1.30;99.90
18446;DHT22;9352;50.888;4.466;2023-02-08T04:46:30;-1.30;99.90
18446;DHT22;9352;50.888;4.466;2023-02-08T04:48:57;-1.30;99.90
18446;DHT22;9352;50.888;4.466;2023-02-08T04:51:24;-1.40;99.90
18446;DHT22;9352;50.888;4.466;2023-02-08T04:53:51;-1.40;99.90
18446;DHT22;9352;50.888;4.466;2023-02-08T04:56:19;-1.40;99.90
18446;DHT22;9352;50.888;4.466;2023-02-08T04:58:46;-1.40;99.90
18446;DHT22;9352;50.888;4.466;2023-02-08T05:01:13;-1.40;99.90
18446;DHT22;9352;50.888;4.466;2023-02-08T05:03:41;-1.40;99.90
18446;DHT22;9352;50.888;4.466;2023-02-08T05:06:08;-1.40;99.90
18446;DHT22;9352;50.888;4.466;2023-02-08T05:08:35;-1.40;99.90
18446;DHT22;9352;50.888;4.466;2023-02-08T05:11:02;-1.40;99.90
18446;DHT22;9352;50.888;4.466;2023-02-08T05:13:30;-1.40;99.90
18446;DHT22;9352;50.888;4.466;2023-02-08T05:15:58;-1.40;99.90
18446;DHT22;9352;50.888;4.466;2023-02-08T05:18:25;-0.60;99.90
18446;DHT22;9352;50.888;4.466;2023-02-08T05:20:55;-0.60;99.90
18446;DHT22;9352;50.888;4.466;2023-02-08T05:23:22;-0.80;99.90
18446;DHT22;9352;50.888;4.466;2023-02-08T05:25:49;-1.00;99.90
18446;DHT22;9352;50.888;4.466;2023-02-08T05:28:16;-1.00;99.90
18446;DHT22;9352;50.888;4.466;2023-02-08T05:30:45;-1.10;99.90
18446;DHT22;9352;50.888;4.466;2023-02-08T05:33:13;-1.20;99.90
18446;DHT22;9352;50.888;4.466;2023-02-08T05:35:40;-1.20;99.90
18446;DHT22;9352;50.888;4.466;2023-02-08T05:38:07;-1.30;99.90
18446;DHT22;9352;50.888;4.466;2023-02-08T05:40:34;-1.30;99.90
18446;DHT22;9352;50.888;4.466;2023-02-08T05:43:01;-1.30;99.90
18446;DHT22;9352;50.888;4.466;2023-02-08T05:45:28;-1.30;99.90
18446;DHT22;9352;50.888;4.466;2023-02-08T05:47:56;-1.30;99.90
18446;DHT22;9352;50.888;4.466;2023-02-08T05:50:23;-1.30;99.90
18446;DHT22;9352;50.888;4.466;2023-02-08T05:52:50;-1.30;99.90
18446;DHT22;9352;50.888;4.466;2023-02-08T05:55:17;-1.40;99.90
18446;DHT22;9352;50.888;4.466;2023-02-08T05:57:44;-1.40;99.90
18446;DHT22;9352;50.888;4.466;2023-02-08T06:00:12;-1.40;99.90
18446;DHT22;9352;50.888;4.466;2023-02-08T06:02:39;-1.40;99.90
18446;DHT22;9352;50.888;4.466;2023-02-08T06:05:07;-1.40;99.90
18446;DHT22;9352;50.888;4.466;2023-02-08T06:07:34;-1.40;99.90
18446;DHT22;9352;50.888;4.466;2023-02-08T06:10:02;-1.40;99.90
18446;DHT22;9352;50.888;4.466;2023-02-08T06:12:29;-1.40;99.90
18446;DHT22;9352;50.888;4.466;2023-02-08T06:14:56;-1.40;99.90
18446;DHT22;9352;50.888;4.466;2023-02-08T06:17:23;-1.40;99.90
18446;DHT22;9352;50.888;4.466;2023-02-08T06:19:50;-1.40;99.90
18446;DHT22;9352;50.888;4.466;2023-02-08T06:22:18;-1.40;99.90
18446;DHT22;9352;50.888;4.466;2023-02-08T06:24:45;-1.40;99.90
18446;DHT22;9352;50.888;4.466;2023-02-08T06:27:13;-1.40;99.90
18446;DHT22;9352;50.888;4.466;2023-02-08T06:29:40;-1.40;99.90
18446;DHT22;9352;50.888;4.466;2023-02-08T06:32:06;-1.40;99.90
18446;DHT22;9352;50.888;4.466;2023-02-08T06:34:33;-1.40;99.90
18446;DHT22;9352;50.888;4.466;2023-02-08T06:37:00;-1.40;99.90
18446;DHT22;9352;50.888;4.466;2023-02-08T06:39:31;-1.40;99.90
18446;DHT22;9352;50.888;4.466;2023-02-08T06:41:58;-1.40;99.90
18446;DHT22;9352;50.888;4.466;2023-02-08T06:44:25;-1.40;99.90
18446;DHT22;9352;50.888;4.466;2023-02-08T06:46:51;-1.40;99.90
18446;DHT22;9352;50.888;4.466;2023-02-08T06:49:18;-1.40;99.90
18446;DHT22;9352;50.888;4.466;2023-02-08T06:51:45;-1.40;99.90
18446;DHT22;9352;50.888;4.466;2023-02-08T06:54:12;-1.40;99.90
18446;DHT22;9352;50.888;4.466;2023-02-08T06:56:41;-1.40;99.90
18446;DHT22;9352;50.888;4.466;2023-02-08T06:59:08;-1.30;99.90
18446;DHT22;9352;50.888;4.466;2023-02-08T07:01:35;-1.30;99.90
18446;DHT22;9352;50.888;4.466;2023-02-08T07:04:02;-1.30;99.90
18446;DHT22;9352;50.888;4.466;2023-02-08T07:06:29;-1.30;99.90
18446;DHT22;9352;50.888;4.466;2023-02-08T07:08:56;-1.30;99.90
18446;DHT22;9352;50.888;4.466;2023-02-08T07:11:23;-1.30;99.90
18446;DHT22;9352;50.888;4.466;2023-02-08T07:13:51;-1.20;99.90
18446;DHT22;9352;50.888;4.466;2023-02-08T07:16:19;-1.20;99.90
18446;DHT22;9352;50.888;4.466;2023-02-08T07:18:46;-1.20;99.90
18446;DHT22;9352;50.888;4.466;2023-02-08T07:21:13;-1.10;99.90
18446;DHT22;9352;50.888;4.466;2023-02-08T07:23:41;-1.10;99.90
18446;DHT22;9352;50.888;4.466;2023-02-08T07:26:10;-1.10;99.90
18446;DHT22;9352;50.888;4.466;2023-02-08T07:28:37;-1.10;99.90
18446;DHT22;9352;50.888;4.466;2023-02-08T07:31:07;-1.00;99.90
18446;DHT22;9352;50.888;4.466;2023-02-08T07:33:34;-1.00;99.90
18446;DHT22;9352;50.888;4.466;2023-02-08T07:36:01;-0.90;99.90
18446;DHT22;9352;50.888;4.466;2023-02-08T07:38:30;-1.00;99.90
18446;DHT22;9352;50.888;4.466;2023-02-08T07:41:02;-0.90;99.90
18446;DHT22;9352;50.888;4.466;2023-02-08T07:43:29;-0.90;99.90
18446;DHT22;9352;50.888;4.466;2023-02-08T07:45:56;-0.80;99.90
18446;DHT22;9352;50.888;4.466;2023-02-08T07:48:24;-0.80;99.90
18446;DHT22;9352;50.888;4.466;2023-02-08T07:50:51;-0.80;99.90
18446;DHT22;9352;50.888;4.466;2023-02-08T07:53:18;-0.80;99.90
18446;DHT22;9352;50.888;4.466;2023-02-08T07:55:45;-0.70;99.90
18446;DHT22;9352;50.888;4.466;2023-02-08T07:58:12;-0.70;99.90
18446;DHT22;9352;50.888;4.466;2023-02-08T08:00:39;-0.60;99.90
18446;DHT22;9352;50.888;4.466;2023-02-08T08:03:06;-0.60;99.90
18446;DHT22;9352;50.888;4.466;2023-02-08T08:05:35;-0.50;99.90
18446;DHT22;9352;50.888;4.466;2023-02-08T08:08:02;-0.50;99.90
18446;DHT22;9352;50.888;4.466;2023-02-08T08:10:29;-0.40;99.90
18446;DHT22;9352;50.888;4.466;2023-02-08T08:12:56;-0.30;99.90
18446;DHT22;9352;50.888;4.466;2023-02-08T08:15:23;-0.10;99.90
18446;DHT22;9352;50.888;4.466;2023-02-08T08:17:50;0.20;99.90
18446;DHT22;9352;50.888;4.466;2023-02-08T08:20:17;0.60;99.90
18446;DHT22;9352;50.888;4.466;2023-02-08T08:22:45;1.00;99.90
18446;DHT22;9352;50.888;4.466;2023-02-08T08:25:13;1.40;99.90
18446;DHT22;9352;50.888;4.466;2023-02-08T08:27:40;1.80;99.90
18446;DHT22;9352;50.888;4.466;2023-02-08T08:30:08;2.20;99.90
18446;DHT22;9352;50.888;4.466;2023-02-08T08:32:36;2.40;99.90
18446;DHT22;9352;50.888;4.466;2023-02-08T08:35:03;2.40;99.90
18446;DHT22;9352;50.888;4.466;2023-02-08T08:37:30;2.20;99.90
18446;DHT22;9352;50.888;4.466;2023-02-08T08:39:59;2.10;99.90
18446;DHT22;9352;50.888;4.466;2023-02-08T08:42:26;2.00;99.90
18446;DHT22;9352;50.888;4.466;2023-02-08T08:44:53;1.90;99.90
18446;DHT22;9352;50.888;4.466;2023-02-08T08:47:20;1.80;99.90
18446;DHT22;9352;50.888;4.466;2023-02-08T08:49:47;1.70;99.90
18446;DHT22;9352;50.888;4.466;2023-02-08T08:52:14;1.70;99.90
18446;DHT22;9352;50.888;4.466;2023-02-08T08:54:41;1.60;99.90
18446;DHT22;9352;50.888;4.466;2023-02-08T08:57:09;1.60;99.90
18446;DHT22;9352;50.888;4.466;2023-02-08T08:59:36;1.60;99.90
18446;DHT22;9352;50.888;4.466;2023-02-08T09:02:03;1.70;99.90
18446;DHT22;9352;50.888;4.466;2023-02-08T09:04:30;1.90;99.90
18446;DHT22;9352;50.888;4.466;2023-02-08T09:06:57;1.90;99.90
18446;DHT22;9352;50.888;4.466;2023-02-08T09:09:24;2.30;99.90
18446;DHT22;9352;50.888;4.466;2023-02-08T09:11:51;2.60;99.90
18446;DHT22;9352;50.888;4.466;2023-02-08T09:14:19;2.70;99.90
18446;DHT22;9352;50.888;4.466;2023-02-08T09:16:46;2.80;99.90
18446;DHT22;9352;50.888;4.466;2023-02-08T09:19:14;2.90;99.90
18446;DHT22;9352;50.888;4.466;2023-02-08T09:21:41;2.80;99.90
18446;DHT22;9352;50.888;4.466;2023-02-08T09:24:08;2.80;99.90
18446;DHT22;9352;50.888;4.466;2023-02-08T09:26:36;2.80;99.90
18446;DHT22;9352;50.888;4.466;2023-02-08T09:29:04;2.70;99.90
18446;DHT22;9352;50.888;4.466;2023-02-08T09:31:34;2.70;99.90
18446;DHT22;9352;50.888;4.466;2023-02-08T09:34:03;2.70;99.90
18446;DHT22;9352;50.888;4.466;2023-02-08T09:36:32;2.70;99.90
18446;DHT22;9352;50.888;4.466;2023-02-08T09:39:02;2.60;99.90
18446;DHT22;9352;50.888;4.466;2023-02-08T09:41:54;2.70;99.90
18446;DHT22;9352;50.888;4.466;2023-02-08T09:44:30;2.70;99.90
18446;DHT22;9352;50.888;4.466;2023-02-08T09:47:02;2.80;99.90
18446;DHT22;9352;50.888;4.466;2023-02-08T09:49:35;2.80;99.90
18446;DHT22;9352;50.888;4.466;2023-02-08T09:52:08;2.80;99.90
18446;DHT22;9352;50.888;4.466;2023-02-08T09:54:36;3.00;99.90
18446;DHT22;9352;50.888;4.466;2023-02-08T09:57:10;3.20;99.90
18446;DHT22;9352;50.888;4.466;2023-02-08T09:59:39;3.30;99.90
18446;DHT22;9352;50.888;4.466;2023-02-08T10:02:17;3.30;99.90
18446;DHT22;9352;50.888;4.466;2023-02-08T10:04:56;3.40;99.90
18446;DHT22;9352;50.888;4.466;2023-02-08T10:07:24;3.50;99.90
18446;DHT22;9352;50.888;4.466;2023-02-08T10:09:52;3.50;99.90
18446;DHT22;9352;50.888;4.466;2023-02-08T10:12:35;3.60;99.90
18446;DHT22;9352;50.888;4.466;2023-02-08T10:15:12;3.90;99.90
18446;DHT22;9352;50.888;4.466;2023-02-08T10:18:07;4.40;99.90
18446;DHT22;9352;50.888;4.466;2023-02-08T10:20:47;5.10;99.90
18446;DHT22;9352;50.888;4.466;2023-02-08T10:23:28;5.60;99.90
18446;DHT22;9352;50.888;4.466;2023-02-08T10:26:08;5.70;99.90
18446;DHT22;9352;50.888;4.466;2023-02-08T10:28:53;5.80;99.90
18446;DHT22;9352;50.888;4.466;2023-02-08T10:31:35;6.00;99.90
18446;DHT22;9352;50.888;4.466;2023-02-08T10:34:14;6.10;99.90
18446;DHT22;9352;50.888;4.466;2023-02-08T10:36:44;6.30;99.90
18446;DHT22;9352;50.888;4.466;2023-02-08T10:39:14;6.60;99.90
18446;DHT22;9352;50.888;4.466;2023-02-08T10:41:43;7.10;99.90
18446;DHT22;9352;50.888;4.466;2023-02-08T10:44:19;7.60;99.90
18446;DHT22;9352;50.888;4.466;2023-02-08T10:46:51;8.30;99.90
18446;DHT22;9352;50.888;4.466;2023-02-08T10:49:30;8.80;99.90
18446;DHT22;9352;50.888;4.466;2023-02-08T10:51:59;8.70;99.90
18446;DHT22;9352;50.888;4.466;2023-02-08T10:54:26;8.60;99.90
18446;DHT22;9352;50.888;4.466;2023-02-08T10:56:54;8.70;99.90
18446;DHT22;9352;50.888;4.466;2023-02-08T10:59:26;8.60;99.90
18446;DHT22;9352;50.888;4.466;2023-02-08T11:01:55;8.60;99.90
18446;DHT22;9352;50.888;4.466;2023-02-08T11:04:24;8.70;99.90
18446;DHT22;9352;50.888;4.466;2023-02-08T11:06:51;8.60;99.90
18446;DHT22;9352;50.888;4.466;2023-02-08T11:09:24;8.50;99.90
18446;DHT22;9352;50.888;4.466;2023-02-08T11:11:52;8.80;99.90
18446;DHT22;9352;50.888;4.466;2023-02-08T11:14:23;9.40;99.90
18446;DHT22;9352;50.888;4.466;2023-02-08T11:16:51;10.20;99.90
18446;DHT22;9352;50.888;4.466;2023-02-08T11:19:31;10.90;99.90
18446;DHT22;9352;50.888;4.466;2023-02-08T11:21:59;11.30;99.90
18446;DHT22;9352;50.888;4.466;2023-02-08T11:24:32;11.10;99.20
18446;DHT22;9352;50.888;4.466;2023-02-08T11:27:00;10.80;95.80
18446;DHT22;9352;50.888;4.466;2023-02-08T11:29:29;10.80;96.10
18446;DHT22;9352;50.888;4.466;2023-02-08T11:32:01;10.90;95.30
18446;DHT22;9352;50.888;4.466;2023-02-08T11:34:31;10.70;95.80
18446;DHT22;9352;50.888;4.466;2023-02-08T11:37:00;10.40;95.60
18446;DHT22;9352;50.888;4.466;2023-02-08T11:39:31;10.00;95.10
18446;DHT22;9352;50.888;4.466;2023-02-08T11:42:00;9.50;96.10
18446;DHT22;9352;50.888;4.466;2023-02-08T11:44:30;9.20;96.80
18446;DHT22;9352;50.888;4.466;2023-02-08T11:47:00;8.80;98.90
18446;DHT22;9352;50.888;4.466;2023-02-08T11:49:36;8.60;98.90
18446;DHT22;9352;50.888;4.466;2023-02-08T11:52:05;8.40;99.20
18446;DHT22;9352;50.888;4.466;2023-02-08T11:54:36;8.10;98.10
18446;DHT22;9352;50.888;4.466;2023-02-08T11:57:17;7.90;98.50
18446;DHT22;9352;50.888;4.466;2023-02-08T11:59:45;7.80;97.20
18446;DHT22;9352;50.888;4.466;2023-02-08T12:02:35;7.60;95.70
18446;DHT22;9352;50.888;4.466;2023-02-08T12:05:11;7.50;94.50
18446;DHT22;9352;50.888;4.466;2023-02-08T12:07:56;7.40;94.30
18446;DHT22;9352;50.888;4.466;2023-02-08T12:13:43;7.20;98.00
18446;DHT22;9352;50.888;4.466;2023-02-08T12:16:27;7.10;96.60
18446;DHT22;9352;50.888;4.466;2023-02-08T12:19:17;7.10;96.90
18446;DHT22;9352;50.888;4.466;2023-02-08T12:21:53;7.00;96.90
18446;DHT22;9352;50.888;4.466;2023-02-08T12:24:28;7.00;97.60
18446;DHT22;9352;50.888;4.466;2023-02-08T12:27:11;7.00;96.60
18446;DHT22;9352;50.888;4.466;2023-02-08T12:29:47;7.00;96.50
18446;DHT22;9352;50.888;4.466;2023-02-08T12:32:27;7.00;96.60
18446;DHT22;9352;50.888;4.466;2023-02-08T12:35:09;7.00;95.90
18446;DHT22;9352;50.888;4.466;2023-02-08T12:37:46;7.00;97.00
18446;DHT22;9352;50.888;4.466;2023-02-08T12:40:39;7.10;96.60
18446;DHT22;9352;50.888;4.466;2023-02-08T12:43:29;7.10;96.30
18446;DHT22;9352;50.888;4.466;2023-02-08T12:46:25;7.10;96.60
18446;DHT22;9352;50.888;4.466;2023-02-08T12:49:12;7.10;96.70
18446;DHT22;9352;50.888;4.466;2023-02-08T12:51:50;7.10;98.10
18446;DHT22;9352;50.888;4.466;2023-02-08T12:54:28;7.20;98.30
18446;DHT22;9352;50.888;4.466;2023-02-08T12:56:57;7.20;99.10
18446;DHT22;9352;50.888;4.466;2023-02-08T12:59:29;7.20;98.80
18446;DHT22;9352;50.888;4.466;2023-02-08T13:02:01;7.20;99.10
18446;DHT22;9352;50.888;4.466;2023-02-08T13:04:37;7.20;98.70
18446;DHT22;9352;50.888;4.466;2023-02-08T13:07:12;7.20;97.60
18446;DHT22;9352;50.888;4.466;2023-02-08T13:09:44;7.30;97.20
18446;DHT22;9352;50.888;4.466;2023-02-08T13:12:15;7.30;97.80
18446;DHT22;9352;50.888;4.466;2023-02-08T13:14:47;7.30;99.80
18446;DHT22;9352;50.888;4.466;2023-02-08T13:17:21;7.30;99.70
18446;DHT22;9352;50.888;4.466;2023-02-08T13:19:53;7.40;99.50
18446;DHT22;9352;50.888;4.466;2023-02-08T13:22:22;7.40;99.80
18446;DHT22;9352;50.888;4.466;2023-02-08T13:24:51;7.40;99.30
18446;DHT22;9352;50.888;4.466;2023-02-08T13:27:19;7.50;99.00
18446;DHT22;9352;50.888;4.466;2023-02-08T13:29:48;7.40;99.30
18446;DHT22;9352;50.888;4.466;2023-02-08T13:32:19;7.50;99.10
18446;DHT22;9352;50.888;4.466;2023-02-08T13:34:51;7.40;98.60
18446;DHT22;9352;50.888;4.466;2023-02-08T13:37:20;7.40;99.30
18446;DHT22;9352;50.888;4.466;2023-02-08T13:39:49;7.40;98.90
18446;DHT22;9352;50.888;4.466;2023-02-08T13:42:26;7.50;99.90
18446;DHT22;9352;50.888;4.466;2023-02-08T13:44:55;7.50;99.90
18446;DHT22;9352;50.888;4.466;2023-02-08T13:47:25;7.50;99.90
18446;DHT22;9352;50.888;4.466;2023-02-08T13:49:56;7.60;99.90
18446;DHT22;9352;50.888;4.466;2023-02-08T13:52:49;7.60;99.50
18446;DHT22;9352;50.888;4.466;2023-02-08T13:55:41;7.60;99.70
18446;DHT22;9352;50.888;4.466;2023-02-08T13:58:36;7.60;99.90
18446;DHT22;9352;50.888;4.466;2023-02-08T14:01:19;7.60;99.90
18446;DHT22;9352;50.888;4.466;2023-02-08T14:04:14;7.60;99.80
18446;DHT22;9352;50.888;4.466;2023-02-08T14:06:46;7.50;99.90
18446;DHT22;9352;50.888;4.466;2023-02-08T14:09:19;7.50;99.90
18446;DHT22;9352;50.888;4.466;2023-02-08T14:11:50;7.40;99.60
18446;DHT22;9352;50.888;4.466;2023-02-08T14:14:22;7.40;99.90
18446;DHT22;9352;50.888;4.466;2023-02-08T14:17:08;7.40;99.90
18446;DHT22;9352;50.888;4.466;2023-02-08T14:19:38;7.40;99.70
18446;DHT22;9352;50.888;4.466;2023-02-08T14:22:15;7.50;99.70
18446;DHT22;9352;50.888;4.466;2023-02-08T14:24:45;7.50;99.10
18446;DHT22;9352;50.888;4.466;2023-02-08T14:27:21;7.50;99.30
18446;DHT22;9352;50.888;4.466;2023-02-08T14:29:57;7.50;99.40
18446;DHT22;9352;50.888;4.466;2023-02-08T14:32:26;7.50;99.10
18446;DHT22;9352;50.888;4.466;2023-02-08T14:35:02;7.50;98.80
18446;DHT22;9352;50.888;4.466;2023-02-08T14:37:31;7.50;99.90
18446;DHT22;9352;50.888;4.466;2023-02-08T14:40:30;7.50;99.60
18446;DHT22;9352;50.888;4.466;2023-02-08T14:42:59;7.50;98.50
18446;DHT22;9352;50.888;4.466;2023-02-08T14:45:29;7.50;99.60
18446;DHT22;9352;50.888;4.466;2023-02-08T14:48:01;7.40;99.50
18446;DHT22;9352;50.888;4.466;2023-02-08T14:50:36;7.40;98.90
18446;DHT22;9352;50.888;4.466;2023-02-08T14:53:14;7.50;99.20
18446;DHT22;9352;50.888;4.466;2023-02-08T14:55:47;7.40;98.90
18446;DHT22;9352;50.888;4.466;2023-02-08T14:58:24;7.40;98.90
18446;DHT22;9352;50.888;4.466;2023-02-08T15:00:53;7.40;98.80
18446;DHT22;9352;50.888;4.466;2023-02-08T15:03:20;7.30;99.50
18446;DHT22;9352;50.888;4.466;2023-02-08T15:06:05;7.30;99.40
18446;DHT22;9352;50.888;4.466;2023-02-08T15:08:34;7.30;99.90
18446;DHT22;9352;50.888;4.466;2023-02-08T15:11:02;7.30;99.90
18446;DHT22;9352;50.888;4.466;2023-02-08T15:13:30;7.30;99.90
18446;DHT22;9352;50.888;4.466;2023-02-08T15:15:57;7.30;99.90
18446;DHT22;9352;50.888;4.466;2023-02-08T15:18:28;7.20;99.90
18446;DHT22;9352;50.888;4.466;2023-02-08T15:21:00;7.20;99.90
18446;DHT22;9352;50.888;4.466;2023-02-08T15:23:28;7.20;99.90
18446;DHT22;9352;50.888;4.466;2023-02-08T15:25:57;7.20;99.90
18446;DHT22;9352;50.888;4.466;2023-02-08T15:28:26;7.10;99.90
18446;DHT22;9352;50.888;4.466;2023-02-08T15:30:57;7.10;99.90
18446;DHT22;9352;50.888;4.466;2023-02-08T15:33:25;7.10;99.90
18446;DHT22;9352;50.888;4.466;2023-02-08T15:35:58;7.10;99.90
18446;DHT22;9352;50.888;4.466;2023-02-08T15:38:26;7.00;99.90
18446;DHT22;9352;50.888;4.466;2023-02-08T15:41:02;7.00;99.90
18446;DHT22;9352;50.888;4.466;2023-02-08T15:43:29;6.90;99.90
18446;DHT22;9352;50.888;4.466;2023-02-08T15:45:59;6.90;99.90
18446;DHT22;9352;50.888;4.466;2023-02-08T15:48:26;6.90;99.90
18446;DHT22;9352;50.888;4.466;2023-02-08T15:50:54;6.90;99.90
18446;DHT22;9352;50.888;4.466;2023-02-08T15:53:22;6.90;99.90
18446;DHT22;9352;50.888;4.466;2023-02-08T15:55:52;6.80;99.90
18446;DHT22;9352;50.888;4.466;2023-02-08T15:58:26;6.80;99.90
18446;DHT22;9352;50.888;4.466;2023-02-08T16:00:54;6.80;99.90
18446;DHT22;9352;50.888;4.466;2023-02-08T16:03:25;6.70;99.90
18446;DHT22;9352;50.888;4.466;2023-02-08T16:05:55;6.70;99.90
18446;DHT22;9352;50.888;4.466;2023-02-08T16:08:24;6.60;99.90
18446;DHT22;9352;50.888;4.466;2023-02-08T16:10:54;6.60;99.90
18446;DHT22;9352;50.888;4.466;2023-02-08T16:13:23;6.50;99.90
18446;DHT22;9352;50.888;4.466;2023-02-08T16:15:53;6.40;99.90
18446;DHT22;9352;50.888;4.466;2023-02-08T16:18:39;6.40;99.90
18446;DHT22;9352;50.888;4.466;2023-02-08T16:21:18;6.20;99.90
18446;DHT22;9352;50.888;4.466;2023-02-08T16:23:50;6.20;99.90
18446;DHT22;9352;50.888;4.466;2023-02-08T16:26:20;6.10;99.90
18446;DHT22;9352;50.888;4.466;2023-02-08T16:28:53;6.10;99.90